Time;durP1;ratioP1;P1;durP2;ratioP2;P2;SDS_P1;SDS_P2;PMS_P1;PMS_P2;Temp;Humidity;BMP_temperature;BMP_pressure;BME280_temperature;BME280_humidity;BME280_pressure;Samples;Min_cycle;Max_cycle;Signal;HPM_P1;HPM_P2
2022/05/17 00:02:06;;;;;;;15.32;5.85;;;23.20;71.50;;;;;;5030356;28;20111;-63
2022/05/17 00:04:32;;;;;;;15.18;6.22;;;23.20;71.60;;;;;;5033550;28;20037;-63
2022/05/17 00:06:58;;;;;;;18.15;5.55;;;23.10;71.70;;;;;;5036728;28;20027;-63
2022/05/17 00:09:23;;;;;;;15.25;6.20;;;23.10;71.80;;;;;;5035878;28;20028;-63
2022/05/17 00:11:49;;;;;;;17.63;5.95;;;23.10;71.90;;;;;;5038047;28;20032;-62
2022/05/17 00:14:15;;;;;;;13.13;5.43;;;23.10;72.00;;;;;;5034364;28;20032;-62
2022/05/17 00:16:41;;;;;;;12.35;5.38;;;23.10;72.20;;;;;;5032599;28;20266;-62
2022/05/17 00:19:06;;;;;;;11.05;6.13;;;23.10;72.20;;;;;;5019374;28;20025;-62
2022/05/17 00:21:32;;;;;;;15.50;6.43;;;23.00;72.20;;;;;;5038013;28;20473;-63
2022/05/17 00:23:57;;;;;;;15.95;6.32;;;23.00;72.40;;;;;;5036635;28;20028;-63
2022/05/17 00:26:23;;;;;;;14.95;6.20;;;23.00;72.50;;;;;;5039676;28;20622;-63
2022/05/17 00:28:48;;;;;;;15.25;5.85;;;23.00;72.70;;;;;;5036952;28;20041;-62
2022/05/17 00:31:14;;;;;;;11.23;5.90;;;22.90;72.80;;;;;;5037535;28;20135;-62
2022/05/17 00:33:39;;;;;;;12.02;6.20;;;22.90;72.90;;;;;;5037686;28;20045;-63
2022/05/17 00:36:05;;;;;;;14.35;5.75;;;22.90;73.00;;;;;;5032975;28;20057;-63
2022/05/17 00:38:31;;;;;;;13.55;6.45;;;22.90;73.00;;;;;;5033734;28;20108;-62
2022/05/17 00:40:56;;;;;;;12.95;6.30;;;22.90;73.10;;;;;;5036673;28;20107;-63
2022/05/17 00:43:28;;;;;;;18.42;6.30;;;22.80;73.10;;;;;;5035393;28;20999;-62
2022/05/17 00:45:54;;;;;;;13.57;5.57;;;22.80;73.20;;;;;;5036245;28;20201;-63
2022/05/17 00:48:19;;;;;;;10.52;5.47;;;22.80;73.30;;;;;;5041214;28;20047;-63
2022/05/17 00:50:46;;;;;;;13.38;5.45;;;22.80;73.30;;;;;;5025529;28;20023;-62
2022/05/17 00:53:31;;;;;;;8.10;4.90;;;22.80;74.10;;;;;;5025320;28;20114;-62
2022/05/17 00:55:58;;;;;;;9.95;4.93;;;22.70;73.50;;;;;;5040087;28;20024;-63
2022/05/17 00:58:26;;;;;;;15.48;5.35;;;22.70;73.70;;;;;;5025353;28;20036;-63
2022/05/17 01:00:55;;;;;;;10.25;4.68;;;22.70;73.80;;;;;;5041542;28;20376;-63
2022/05/17 01:03:21;;;;;;;11.15;5.10;;;22.70;73.80;;;;;;5039627;28;20083;-63
2022/05/17 01:05:48;;;;;;;11.05;5.13;;;22.70;73.80;;;;;;5021560;28;20052;-62
2022/05/17 01:08:14;;;;;;;10.30;5.13;;;22.60;73.80;;;;;;5024127;28;20029;-63
2022/05/17 01:10:40;;;;;;;12.35;4.53;;;22.60;74.00;;;;;;5036677;28;20044;-62
2022/05/17 01:15:49;;;;;;;10.25;5.25;;;22.60;74.20;;;;;;5027424;28;20111;-63
2022/05/17 01:18:15;;;;;;;12.43;5.10;;;22.60;74.30;;;;;;5038310;28;20408;-63
2022/05/17 01:20:41;;;;;;;15.07;5.03;;;22.60;74.40;;;;;;5040800;28;20441;-63
2022/05/17 01:23:06;;;;;;;14.38;4.97;;;22.50;74.40;;;;;;5038821;28;20079;-63
2022/05/17 01:25:33;;;;;;;12.13;5.13;;;22.50;74.50;;;;;;5044169;28;20401;-63
2022/05/17 01:28:03;;;;;;;10.25;4.90;;;22.50;74.50;;;;;;5040507;28;20106;-62
2022/05/17 01:30:29;;;;;;;12.32;5.65;;;22.50;74.70;;;;;;5041101;28;20044;-63
2022/05/17 01:32:55;;;;;;;18.00;5.60;;;22.40;74.60;;;;;;5021406;28;20029;-63
2022/05/17 01:35:20;;;;;;;9.68;5.15;;;22.40;74.70;;;;;;5038267;28;20025;-63
2022/05/17 01:37:50;;;;;;;8.30;5.22;;;22.40;74.70;;;;;;5040270;28;20115;-63
2022/05/17 01:40:16;;;;;;;10.23;4.50;;;22.40;74.80;;;;;;5039705;28;20087;-63
2022/05/17 01:42:41;;;;;;;9.50;5.13;;;22.30;74.80;;;;;;5039468;28;20122;-62
2022/05/17 01:45:07;;;;;;;9.52;5.05;;;22.30;74.80;;;;;;5040246;28;20529;-63
2022/05/17 01:47:33;;;;;;;7.40;4.38;;;22.30;75.00;;;;;;5041058;28;20465;-62
2022/05/17 01:49:58;;;;;;;9.93;4.07;;;22.30;75.10;;;;;;5040305;28;20032;-64
2022/05/17 01:52:24;;;;;;;11.20;4.40;;;22.30;75.00;;;;;;5041229;28;20033;-63
2022/05/17 01:54:49;;;;;;;6.38;4.28;;;22.30;75.20;;;;;;5038243;28;20029;-64
2022/05/17 01:57:15;;;;;;;8.82;4.30;;;22.20;75.20;;;;;;5024530;28;20481;-63
2022/05/17 01:59:40;;;;;;;10.23;4.22;;;22.20;75.20;;;;;;5038304;28;20072;-63
2022/05/17 02:02:06;;;;;;;9.43;4.03;;;22.20;75.30;;;;;;5033972;28;20092;-62
2022/05/17 02:04:31;;;;;;;11.50;4.50;;;22.20;75.40;;;;;;5039523;28;20056;-63
2022/05/17 02:06:57;;;;;;;9.23;4.20;;;22.10;75.50;;;;;;5035937;28;20100;-63
2022/05/17 02:09:22;;;;;;;6.38;4.10;;;22.10;75.60;;;;;;5039214;28;20061;-63
2022/05/17 02:11:48;;;;;;;8.80;4.10;;;22.10;75.80;;;;;;5037076;28;20071;-62
2022/05/17 02:14:14;;;;;;;13.95;4.90;;;22.10;75.80;;;;;;5036918;28;20072;-63
2022/05/17 02:16:39;;;;;;;9.23;4.15;;;22.10;75.90;;;;;;5042581;28;20437;-62
2022/05/17 02:19:06;;;;;;;9.82;5.32;;;22.10;75.90;;;;;;5040671;28;20327;-63
2022/05/17 02:21:35;;;;;;;10.57;4.20;;;22.00;75.90;;;;;;5035145;28;20124;-62
2022/05/17 02:24:01;;;;;;;6.20;4.05;;;22.00;75.80;;;;;;5039442;28;20039;-64
2022/05/17 02:26:27;;;;;;;6.82;4.35;;;22.00;75.80;;;;;;5038374;28;20060;-62
2022/05/17 02:28:52;;;;;;;7.03;3.85;;;22.00;75.80;;;;;;5022263;28;20052;-63
2022/05/17 02:31:19;;;;;;;10.05;4.10;;;22.00;76.00;;;;;;5042124;28;20726;-63
2022/05/17 02:33:45;;;;;;;7.72;4.43;;;21.90;76.00;;;;;;5022858;28;20095;-62
2022/05/17 02:36:10;;;;;;;11.52;4.18;;;21.90;76.00;;;;;;5025695;28;20045;-63
2022/05/17 02:38:36;;;;;;;9.13;4.03;;;21.90;76.10;;;;;;5038236;28;20056;-62
2022/05/17 02:41:01;;;;;;;8.23;3.78;;;21.90;76.20;;;;;;5041640;28;20111;-62
2022/05/17 02:43:27;;;;;;;9.00;3.75;;;21.90;76.20;;;;;;5039763;28;20033;-63
2022/05/17 02:45:53;;;;;;;12.52;4.05;;;21.90;76.30;;;;;;5041318;28;20031;-63
2022/05/17 02:48:19;;;;;;;9.63;4.10;;;21.80;76.20;;;;;;5021698;28;20044;-62
2022/05/17 02:50:44;;;;;;;6.30;4.03;;;21.80;76.30;;;;;;5039234;28;20563;-64
2022/05/17 02:53:10;;;;;;;7.40;3.80;;;21.80;76.30;;;;;;5039980;28;20051;-62
2022/05/17 02:55:35;;;;;;;8.98;3.88;;;21.80;76.40;;;;;;5040450;28;20029;-63
2022/05/17 02:58:01;;;;;;;6.20;3.67;;;21.80;76.40;;;;;;5041302;28;20037;-63
2022/05/17 03:00:26;;;;;;;8.80;3.60;;;21.70;76.40;;;;;;5039703;28;20270;-62
2022/05/17 03:02:52;;;;;;;7.95;3.47;;;21.70;77.10;;;;;;5024697;28;20027;-63
2022/05/17 03:05:18;;;;;;;10.35;4.05;;;21.70;76.50;;;;;;5040827;28;20522;-63
2022/05/17 03:07:43;;;;;;;6.47;3.70;;;21.70;76.50;;;;;;5035667;28;20432;-62
2022/05/17 03:10:10;;;;;;;8.52;4.00;;;21.70;76.60;;;;;;5041631;28;20044;-64
2022/05/17 03:12:35;;;;;;;14.07;3.78;;;21.60;76.70;;;;;;5023642;28;20749;-63
2022/05/17 03:15:01;;;;;;;8.27;3.42;;;21.60;76.70;;;;;;5040036;28;20112;-61
2022/05/17 03:17:26;;;;;;;6.38;3.25;;;21.60;76.70;;;;;;5039028;28;20020;-62
2022/05/17 03:19:55;;;;;;;7.80;3.65;;;21.60;76.80;;;;;;5039964;28;20013;-62
2022/05/17 03:22:20;;;;;;;13.95;4.10;;;21.50;76.80;;;;;;5039589;28;20056;-63
2022/05/17 03:24:46;;;;;;;9.80;4.20;;;21.50;76.80;;;;;;5040134;28;20024;-62
2022/05/17 03:27:11;;;;;;;7.45;3.80;;;21.50;77.60;;;;;;5039188;28;20162;-63
2022/05/17 03:29:38;;;;;;;7.28;3.53;;;21.50;76.90;;;;;;5036549;28;20116;-63
2022/05/17 03:32:04;;;;;;;8.15;3.80;;;21.50;77.10;;;;;;5005969;28;20115;-63
2022/05/17 03:34:30;;;;;;;8.18;3.25;;;21.50;77.10;;;;;;5035469;28;20045;-63
2022/05/17 03:36:55;;;;;;;8.48;3.40;;;21.50;77.10;;;;;;5037460;28;20475;-62
2022/05/17 03:39:21;;;;;;;9.93;3.88;;;21.40;77.10;;;;;;5038732;28;20036;-63
2022/05/17 03:41:46;;;;;;;6.85;3.88;;;21.40;77.10;;;;;;5039032;28;20128;-63
2022/05/17 03:44:12;;;;;;;14.75;3.80;;;21.40;77.10;;;;;;5019183;28;20045;-62
2022/05/17 03:46:38;;;;;;;12.82;4.20;;;21.40;77.10;;;;;;5038040;28;20071;-62
2022/05/17 03:49:03;;;;;;;6.88;3.88;;;21.40;77.10;;;;;;5035338;28;20035;-62
2022/05/17 03:51:29;;;;;;;6.18;3.83;;;21.30;77.20;;;;;;5037425;28;20061;-63
2022/05/17 03:53:54;;;;;;;5.90;3.10;;;21.30;77.20;;;;;;5033768;28;20552;-62
2022/05/17 03:56:20;;;;;;;5.55;3.95;;;21.30;77.20;;;;;;5028013;28;20094;-62
2022/05/17 03:58:45;;;;;;;6.53;3.78;;;21.30;77.30;;;;;;5022383;28;20041;-61
2022/05/17 04:01:12;;;;;;;5.20;3.38;;;21.30;77.30;;;;;;5039872;28;20025;-63
2022/05/17 04:03:37;;;;;;;4.90;3.67;;;21.20;77.20;;;;;;5039583;28;20032;-64
2022/05/17 04:06:03;;;;;;;5.68;3.33;;;21.20;77.30;;;;;;5024362;28;20038;-63
2022/05/17 04:08:29;;;;;;;7.57;3.53;;;21.20;77.30;;;;;;5019900;28;20480;-62
2022/05/17 04:10:54;;;;;;;6.65;3.50;;;21.20;77.50;;;;;;5035352;28;20238;-63
2022/05/17 04:13:20;;;;;;;6.75;3.33;;;21.20;77.50;;;;;;5038008;28;20116;-64
2022/05/17 04:15:46;;;;;;;6.20;3.53;;;21.10;77.50;;;;;;5038830;28;20108;-63
2022/05/17 04:18:11;;;;;;;5.13;3.40;;;21.30;77.70;;;;;;5035548;28;20350;-63
2022/05/17 04:20:37;;;;;;;7.55;3.65;;;21.10;77.60;;;;;;5034597;28;20501;-63
2022/05/17 04:23:02;;;;;;;5.47;3.58;;;21.10;77.60;;;;;;5038158;28;20033;-63
2022/05/17 04:25:28;;;;;;;5.10;3.55;;;21.10;77.60;;;;;;5038751;28;20045;-63
2022/05/17 04:27:54;;;;;;;32.20;6.25;;;21.00;77.70;;;;;;5035003;28;20025;-62
2022/05/17 04:30:20;;;;;;;13.27;4.90;;;21.10;77.60;;;;;;5019501;28;20493;-63
2022/05/17 04:32:46;;;;;;;31.08;6.45;;;21.00;77.50;;;;;;5032225;28;20604;-64
2022/05/17 04:35:12;;;;;;;26.88;5.43;;;21.00;77.50;;;;;;5037125;28;20044;-63
2022/05/17 04:37:37;;;;;;;22.38;5.28;;;21.00;77.50;;;;;;5032331;28;20537;-63
2022/05/17 04:40:05;;;;;;;24.45;5.75;;;21.00;77.50;;;;;;5021060;28;20494;-63
2022/05/17 04:42:30;;;;;;;28.13;5.88;;;21.00;77.70;;;;;;5036404;28;20025;-63
2022/05/17 04:44:56;;;;;;;29.05;5.88;;;21.00;77.80;;;;;;5037701;28;20484;-62
2022/05/17 04:47:22;;;;;;;22.67;5.60;;;20.90;77.80;;;;;;5034031;28;20330;-62
2022/05/17 04:49:47;;;;;;;25.00;5.40;;;21.00;77.90;;;;;;5036726;28;20041;-63
2022/05/17 04:52:13;;;;;;;19.27;5.45;;;21.00;77.80;;;;;;5037410;28;20446;-62
2022/05/17 04:54:38;;;;;;;18.52;5.75;;;20.90;77.80;;;;;;5036489;28;20029;-62
2022/05/17 04:57:04;;;;;;;28.13;5.88;;;20.90;77.90;;;;;;5039247;28;20120;-63
2022/05/17 04:59:30;;;;;;;23.33;5.97;;;20.90;77.90;;;;;;5031913;28;20385;-62
2022/05/17 05:01:55;;;;;;;18.85;5.38;;;20.90;78.00;;;;;;5029123;28;20047;-62
2022/05/17 05:04:21;;;;;;;26.05;5.38;;;20.90;78.00;;;;;;5034557;28;20060;-62
2022/05/17 05:06:46;;;;;;;27.25;5.50;;;20.90;78.10;;;;;;5038762;28;20116;-62
2022/05/17 05:09:13;;;;;;;19.58;4.57;;;20.90;78.10;;;;;;5032965;28;20665;-63
2022/05/17 05:11:38;;;;;;;25.75;5.28;;;20.90;78.10;;;;;;5037508;28;20028;-63
2022/05/17 05:14:05;;;;;;;21.67;5.35;;;20.90;78.10;;;;;;5037608;28;20033;-62
2022/05/17 05:16:30;;;;;;;21.42;5.05;;;20.90;78.10;;;;;;5020944;28;20098;-62
2022/05/17 05:18:56;;;;;;;20.50;5.07;;;20.90;78.20;;;;;;5034557;28;20029;-63
2022/05/17 05:21:22;;;;;;;18.20;4.65;;;20.90;78.30;;;;;;5035697;28;20392;-62
2022/05/17 05:23:47;;;;;;;20.38;4.85;;;20.90;78.50;;;;;;5001489;28;20026;-63
2022/05/17 05:26:13;;;;;;;15.43;4.70;;;20.90;78.50;;;;;;5019316;28;20025;-62
2022/05/17 05:28:39;;;;;;;21.35;4.80;;;20.90;78.50;;;;;;5033853;28;20037;-62
2022/05/17 05:31:05;;;;;;;19.73;4.80;;;20.90;78.50;;;;;;5036191;28;20033;-63
2022/05/17 05:33:31;;;;;;;25.13;5.20;;;20.90;78.50;;;;;;5038254;28;20054;-65
2022/05/17 05:35:57;;;;;;;16.13;4.80;;;20.90;78.50;;;;;;5042918;28;20535;-64
2022/05/17 05:38:23;;;;;;;14.25;4.43;;;20.90;78.50;;;;;;5009618;28;20090;-62
2022/05/17 05:40:48;;;;;;;24.30;4.57;;;20.90;78.50;;;;;;5042050;28;20465;-66
2022/05/17 05:43:14;;;;;;;17.85;4.53;;;20.90;78.50;;;;;;5040461;28;20028;-63
2022/05/17 05:45:40;;;;;;;17.13;4.47;;;20.90;78.70;;;;;;5043607;28;20035;-63
2022/05/17 05:48:06;;;;;;;14.25;4.65;;;20.90;78.80;;;;;;5044855;28;20389;-64
2022/05/17 05:50:31;;;;;;;10.60;3.70;;;20.90;78.70;;;;;;5041349;28;20454;-65
2022/05/17 05:53:05;;;;;;;19.65;5.07;;;20.90;78.70;;;;;;5024719;28;20029;-63
2022/05/17 05:55:31;;;;;;;19.48;4.20;;;20.90;78.70;;;;;;5041424;28;20074;-64
2022/05/17 05:57:57;;;;;;;13.52;4.55;;;21.00;78.70;;;;;;5040888;28;20033;-62
2022/05/17 06:00:22;;;;;;;21.08;4.63;;;20.90;78.50;;;;;;5039319;28;20124;-62
2022/05/17 06:02:48;;;;;;;15.50;4.07;;;21.00;78.60;;;;;;5018002;28;20106;-62
2022/05/17 06:05:13;;;;;;;8.65;3.90;;;20.90;78.80;;;;;;5044510;28;20516;-63
2022/05/17 06:07:39;;;;;;;19.80;4.32;;;20.90;79.10;;;;;;5038558;28;20068;-62
2022/05/17 06:10:05;;;;;;;16.33;4.22;;;20.90;79.70;;;;;;5037816;28;20018;-63
2022/05/17 06:12:31;;;;;;;10.60;3.80;;;20.90;79.90;;;;;;5037532;28;20021;-62
2022/05/17 06:14:57;;;;;;;11.80;3.67;;;20.80;80.10;;;;;;5036316;28;20099;-62
2022/05/17 06:17:27;;;;;;;12.30;3.42;;;20.80;80.60;;;;;;5041848;28;20029;-63
2022/05/17 06:19:53;;;;;;;12.88;3.83;;;20.80;80.80;;;;;;5029228;28;20126;-64
2022/05/17 06:22:19;;;;;;;17.17;3.42;;;20.70;80.80;;;;;;5033757;28;20029;-64
2022/05/17 06:24:45;;;;;;;6.80;3.35;;;20.70;81.10;;;;;;5037101;28;20515;-66
2022/05/17 06:27:10;;;;;;;14.13;3.80;;;20.70;81.00;;;;;;5039565;28;20085;-63
2022/05/17 06:29:36;;;;;;;16.00;4.60;;;20.70;81.20;;;;;;5037105;28;20120;-62
2022/05/17 06:32:01;;;;;;;11.55;3.47;;;20.70;81.20;;;;;;5034898;28;20116;-62
2022/05/17 06:34:27;;;;;;;14.88;3.80;;;20.70;81.50;;;;;;5035206;28;20068;-62
2022/05/17 06:36:52;;;;;;;22.52;3.97;;;20.70;81.60;;;;;;5019168;28;20276;-63
2022/05/17 06:39:18;;;;;;;89.38;11.73;;;20.70;81.40;;;;;;5015427;28;20021;-63
2022/05/17 06:41:44;;;;;;;66.78;9.95;;;20.70;81.30;;;;;;4998619;28;20032;-63
2022/05/17 06:44:10;;;;;;;18.35;4.63;;;20.70;81.30;;;;;;5012392;28;20534;-62
2022/05/17 06:46:35;;;;;;;20.00;4.80;;;20.80;81.60;;;;;;5017476;28;20329;-63
2022/05/17 06:49:01;;;;;;;19.25;4.72;;;20.80;81.50;;;;;;5037027;28;20047;-64
2022/05/17 06:51:27;;;;;;;21.52;4.88;;;20.80;81.30;;;;;;4993945;28;20120;-63
2022/05/17 06:53:52;;;;;;;22.92;5.55;;;20.80;81.30;;;;;;5037245;28;20059;-62
2022/05/17 06:56:18;;;;;;;35.05;5.32;;;20.80;81.30;;;;;;5036991;28;20148;-63
2022/05/17 06:58:43;;;;;;;33.47;5.60;;;20.90;81.10;;;;;;5021338;28;20032;-63
2022/05/17 07:01:09;;;;;;;39.13;7.30;;;20.90;81.20;;;;;;5034938;28;20045;-62
2022/05/17 07:03:34;;;;;;;35.15;6.32;;;20.90;81.10;;;;;;5014604;28;20540;-62
2022/05/17 07:06:00;;;;;;;31.90;6.20;;;20.90;81.20;;;;;;5038572;28;20041;-63
2022/05/17 07:08:25;;;;;;;89.88;11.57;;;20.90;81.30;;;;;;5038925;28;20029;-62
2022/05/17 07:13:35;;;;;;;50.58;8.40;;;20.90;81.80;;;;;;5040731;28;20669;-62
2022/05/17 07:16:01;;;;;;;66.10;9.45;;;21.00;81.30;;;;;;5006684;28;20139;-63
2022/05/17 07:18:28;;;;;;;76.07;8.95;;;21.00;81.00;;;;;;5024046;28;20684;-62
2022/05/17 07:20:54;;;;;;;63.63;9.82;;;21.00;81.10;;;;;;5035565;28;20453;-63
2022/05/17 07:23:21;;;;;;;106.35;12.48;;;21.00;81.60;;;;;;5036409;28;20034;-62
2022/05/17 07:25:46;;;;;;;82.05;11.30;;;21.00;81.20;;;;;;5033515;28;20048;-63
2022/05/17 07:28:17;;;;;;;69.65;12.30;;;21.10;81.00;;;;;;5037443;28;20021;-63
2022/05/17 07:30:43;;;;;;;62.97;9.80;;;21.00;81.10;;;;;;5037006;28;20036;-62
2022/05/17 07:33:08;;;;;;;62.80;8.82;;;21.10;81.10;;;;;;5036487;28;20120;-63
2022/05/17 07:35:34;;;;;;;83.35;11.60;;;21.10;80.90;;;;;;5020195;28;20107;-63
2022/05/17 07:38:01;;;;;;;48.55;9.50;;;21.10;80.90;;;;;;5037251;28;20079;-63
2022/05/17 07:40:27;;;;;;;83.72;11.80;;;21.10;80.60;;;;;;5024312;28;20573;-63
2022/05/17 07:42:53;;;;;;;81.82;10.85;;;21.10;80.80;;;;;;5019591;28;20168;-62
2022/05/17 07:45:18;;;;;;;67.95;11.52;;;21.10;81.20;;;;;;5026423;28;20366;-62
2022/05/17 07:47:44;;;;;;;81.22;10.10;;;21.10;81.10;;;;;;5011843;28;20149;-63
2022/05/17 07:50:09;;;;;;;75.55;9.63;;;21.10;81.30;;;;;;5025575;28;20408;-62
2022/05/17 07:52:35;;;;;;;56.88;9.80;;;21.10;81.10;;;;;;5025111;28;20615;-62
2022/05/17 07:55:01;;;;;;;70.03;10.52;;;21.20;81.20;;;;;;5027385;28;20068;-63
2022/05/17 07:57:27;;;;;;;62.35;12.35;;;21.20;81.20;;;;;;5024363;28;20029;-62
2022/05/17 07:59:52;;;;;;;85.13;11.38;;;21.20;81.20;;;;;;5014874;28;20270;-63
2022/05/17 08:02:18;;;;;;;61.60;9.63;;;21.20;81.50;;;;;;5016136;28;20124;-63
2022/05/17 08:04:44;;;;;;;63.75;8.48;;;21.20;81.50;;;;;;5001079;28;20052;-63
2022/05/17 08:07:09;;;;;;;51.60;8.13;;;21.20;81.40;;;;;;5020652;28;20516;-63
2022/05/17 08:09:35;;;;;;;64.82;8.95;;;21.20;81.40;;;;;;5008503;28;20383;-62
2022/05/17 08:12:02;;;;;;;46.10;8.00;;;21.20;81.40;;;;;;5024788;28;20042;-63
2022/05/17 08:14:28;;;;;;;67.28;9.73;;;21.20;81.30;;;;;;5028494;28;20113;-63
2022/05/17 08:16:53;;;;;;;37.72;7.53;;;21.20;81.40;;;;;;5032034;28;20052;-63
2022/05/17 08:19:19;;;;;;;40.28;7.78;;;21.30;81.20;;;;;;5029124;28;20524;-62
2022/05/17 08:21:44;;;;;;;70.07;10.57;;;21.30;81.20;;;;;;5031506;28;20073;-62
2022/05/17 08:24:10;;;;;;;50.42;8.05;;;21.30;81.20;;;;;;5016802;28;20040;-62
2022/05/17 08:29:20;;;;;;;57.67;8.88;;;21.40;81.40;;;;;;5031332;28;20113;-62
2022/05/17 08:34:29;;;;;;;40.63;7.28;;;21.40;81.10;;;;;;5030270;28;20187;-63
2022/05/17 08:36:55;;;;;;;51.28;7.60;;;21.40;81.10;;;;;;5034846;28;20065;-62
2022/05/17 08:39:20;;;;;;;41.20;8.13;;;21.40;81.20;;;;;;5034441;28;20033;-63
2022/05/17 08:41:52;;;;;;;46.55;8.00;;;21.50;81.20;;;;;;5030384;28;20417;-63
2022/05/17 08:44:20;;;;;;;46.15;8.32;;;21.50;81.00;;;;;;5021414;28;20045;-63
2022/05/17 08:46:51;;;;;;;41.85;6.97;;;21.50;80.70;;;;;;5031949;28;20037;-63
2022/05/17 08:49:21;;;;;;;43.60;6.85;;;21.50;80.40;;;;;;5032297;28;20472;-63
2022/05/17 08:52:07;;;;;;;46.00;6.57;;;21.50;80.20;;;;;;5030551;28;20058;-62
2022/05/17 08:54:45;;;;;;;37.90;6.82;;;21.60;79.80;;;;;;5009405;28;20036;-63
2022/05/17 08:57:33;;;;;;;43.17;6.57;;;21.60;79.50;;;;;;5010186;28;20029;-62
2022/05/17 09:00:05;;;;;;;54.53;6.85;;;21.70;79.10;;;;;;5031996;28;20029;-64
2022/05/17 09:02:43;;;;;;;40.88;6.50;;;21.70;78.50;;;;;;5018214;28;20032;-62
2022/05/17 09:05:26;;;;;;;53.53;7.63;;;21.70;78.20;;;;;;5032462;28;20056;-63
2022/05/17 09:08:22;;;;;;;46.47;7.45;;;21.80;78.10;;;;;;5039851;28;20484;-63
2022/05/17 09:11:07;;;;;;;41.88;7.55;;;21.80;78.60;;;;;;5036026;28;20278;-63
2022/05/17 09:13:52;;;;;;;34.08;6.53;;;21.80;77.60;;;;;;5036869;28;20081;-63
2022/05/17 09:16:17;;;;;;;36.03;7.00;;;21.80;77.30;;;;;;5036829;28;20030;-63
2022/05/17 09:18:46;;;;;;;38.65;6.00;;;21.90;77.10;;;;;;5014704;28;20107;-62
2022/05/17 09:21:33;;;;;;;51.75;6.35;;;21.90;76.80;;;;;;5018166;28;20040;-64
2022/05/17 09:24:14;;;;;;;32.30;6.90;;;21.90;76.70;;;;;;5014159;28;20087;-62
2022/05/17 09:26:41;;;;;;;37.75;6.18;;;22.00;76.60;;;;;;5033738;28;20060;-62
2022/05/17 09:29:18;;;;;;;53.40;7.40;;;22.10;76.40;;;;;;5005190;28;20040;-62
2022/05/17 09:32:22;;;;;;;39.72;6.28;;;22.00;76.20;;;;;;5030364;28;20032;-62
2022/05/17 09:34:47;;;;;;;61.28;8.15;;;22.10;76.00;;;;;;5027272;28;20428;-63
2022/05/17 09:37:18;;;;;;;55.00;7.30;;;22.10;75.90;;;;;;5001320;28;20123;-63
2022/05/17 09:39:53;;;;;;;55.97;7.28;;;22.10;75.80;;;;;;5019849;28;20037;-63
2022/05/17 09:42:36;;;;;;;51.75;8.13;;;22.20;75.80;;;;;;5034419;28;20033;-63
2022/05/17 09:45:07;;;;;;;49.47;7.30;;;22.20;75.70;;;;;;5037386;28;20055;-63
2022/05/17 09:47:35;;;;;;;46.55;6.82;;;22.20;75.50;;;;;;5023442;28;20028;-61
2022/05/17 09:53:00;;;;;;;;;;;22.30;75.50;;;;;;5040045;28;20117;-63
2022/05/17 09:55:28;;;;;;;78.07;9.40;;;22.30;75.20;;;;;;5036708;28;19912;-62
2022/05/17 09:58:04;;;;;;;60.53;10.13;;;22.40;75.40;;;;;;5033027;28;20040;-63
2022/05/17 10:00:30;;;;;;;64.00;9.98;;;22.40;75.40;;;;;;5034457;28;20032;-62
2022/05/17 10:03:00;;;;;;;53.90;9.10;;;22.40;75.00;;;;;;5037987;28;20041;-62
2022/05/17 10:06:08;;;;;;;68.55;8.65;;;22.50;75.10;;;;;;5015956;28;20672;-62
2022/05/17 10:08:40;;;;;;;62.20;9.00;;;22.50;75.00;;;;;;5014978;28;20044;-64
2022/05/17 10:11:13;;;;;;;99.70;12.30;;;22.60;74.80;;;;;;5036009;28;20029;-64
2022/05/17 10:13:48;;;;;;;104.63;12.85;;;22.70;74.90;;;;;;5037366;28;20104;-63
2022/05/17 10:16:26;;;;;;;126.57;12.57;;;22.70;74.80;;;;;;5025551;28;20090;-63
2022/05/17 10:18:54;;;;;;;102.95;12.40;;;22.80;74.40;;;;;;5038294;28;20025;-62
2022/05/17 10:21:33;;;;;;;89.68;13.30;;;22.70;74.30;;;;;;5000223;28;20013;-63
2022/05/17 10:24:05;;;;;;;99.88;13.23;;;22.80;74.30;;;;;;4980986;28;20146;-63
2022/05/17 10:26:34;;;;;;;99.75;12.13;;;22.90;74.20;;;;;;4996491;28;20370;-62
2022/05/17 10:29:20;;;;;;;97.65;11.95;;;22.90;74.10;;;;;;4997476;28;20935;-63
2022/05/17 10:32:04;;;;;;;92.38;12.70;;;23.00;74.10;;;;;;4973819;28;20499;-64
2022/05/17 10:34:49;;;;;;;73.82;10.77;;;23.00;73.90;;;;;;4996477;28;20511;-62
2022/05/17 10:37:19;;;;;;;149.90;18.60;;;23.10;73.70;;;;;;4987272;28;20063;-64
2022/05/17 10:40:06;;;;;;;106.72;14.95;;;23.10;73.60;;;;;;4980599;28;20033;-62
2022/05/17 10:42:32;;;;;;;123.43;14.70;;;23.20;73.60;;;;;;4995428;28;20438;-63
2022/05/17 10:44:58;;;;;;;90.82;14.77;;;23.20;74.20;;;;;;4976475;28;20045;-62
2022/05/17 10:47:49;;;;;;;92.10;12.75;;;23.20;73.30;;;;;;4990291;28;20029;-63
2022/05/17 10:50:28;;;;;;;109.93;16.60;;;23.30;72.70;;;;;;5021328;28;20036;-63
2022/05/17 10:52:53;;;;;;;91.68;11.73;;;23.30;72.50;;;;;;5016581;28;20414;-64
2022/05/17 10:55:51;;;;;;;85.13;11.60;;;23.40;72.20;;;;;;5010661;28;20049;-63
2022/05/17 10:58:40;;;;;;;91.00;11.32;;;23.40;72.00;;;;;;4979887;28;20044;-62
2022/05/17 11:01:19;;;;;;;74.22;10.23;;;23.50;71.60;;;;;;4995237;28;20033;-62
2022/05/17 11:04:22;;;;;;;79.05;9.90;;;23.60;71.70;;;;;;4998626;28;20041;-63
2022/05/17 11:07:28;;;;;;;71.70;9.65;;;23.70;71.70;;;;;;4996016;28;20037;-63
2022/05/17 11:10:03;;;;;;;83.93;11.00;;;23.70;71.10;;;;;;4989383;28;20135;-62
2022/05/17 11:12:32;;;;;;;88.60;11.18;;;23.80;70.70;;;;;;5009275;28;20044;-63
2022/05/17 11:15:07;;;;;;;69.95;8.85;;;23.90;70.40;;;;;;4998725;28;21217;-63
2022/05/17 11:17:38;;;;;;;67.13;9.13;;;24.00;70.20;;;;;;4981034;28;20123;-63
2022/05/17 11:20:27;;;;;;;54.08;8.38;;;24.10;69.70;;;;;;5004350;28;20450;-63
2022/05/17 11:23:31;;;;;;;48.25;7.32;;;24.10;69.10;;;;;;4987615;28;20037;-63
2022/05/17 11:26:18;;;;;;;45.95;7.78;;;24.20;68.90;;;;;;4986354;28;20172;-63
2022/05/17 11:29:05;;;;;;;46.75;6.97;;;24.40;68.80;;;;;;4997853;28;20106;-63
2022/05/17 11:31:55;;;;;;;44.42;7.15;;;24.50;68.00;;;;;;5002676;28;20052;-62
2022/05/17 11:34:26;;;;;;;43.72;6.97;;;24.60;67.90;;;;;;5001140;28;20069;-62
2022/05/17 11:36:53;;;;;;;47.47;6.63;;;24.70;67.50;;;;;;5002762;28;20426;-62
2022/05/17 11:39:31;;;;;;;38.38;6.57;;;24.80;66.70;;;;;;5018397;28;20044;-63
2022/05/17 11:42:34;;;;;;;37.58;6.50;;;24.80;66.70;;;;;;5027822;28;20133;-62
2022/05/17 11:45:22;;;;;;;30.73;5.18;;;24.90;66.70;;;;;;5030173;28;20040;-63
2022/05/17 11:47:54;;;;;;;27.65;5.05;;;25.00;66.00;;;;;;5033982;28;20033;-63
2022/05/17 11:50:29;;;;;;;36.58;6.65;;;25.00;65.60;;;;;;5035055;28;20029;-62
2022/05/17 11:52:56;;;;;;;25.67;5.50;;;25.10;65.90;;;;;;5024629;28;20033;-62
2022/05/17 11:55:26;;;;;;;43.47;4.80;;;25.20;65.10;;;;;;5022371;28;20041;-63
2022/05/17 11:57:51;;;;;;;33.40;5.15;;;25.20;64.50;;;;;;5022963;28;20035;-63
2022/05/17 12:00:23;;;;;;;26.73;4.40;;;25.30;64.70;;;;;;5036135;28;20053;-63
2022/05/17 12:02:51;;;;;;;37.28;5.03;;;25.40;64.50;;;;;;5035508;28;20037;-64
2022/05/17 12:05:43;;;;;;;31.35;4.70;;;25.40;64.00;;;;;;5036536;28;20061;-62
2022/05/17 12:08:27;;;;;;;33.97;5.68;;;25.50;64.00;;;;;;5038043;28;20108;-63
2022/05/17 12:11:11;;;;;;;28.48;5.03;;;25.60;63.90;;;;;;5039659;28;20065;-63
2022/05/17 12:13:55;;;;;;;22.92;4.80;;;25.70;63.70;;;;;;5038436;28;20044;-62
2022/05/17 12:16:26;;;;;;;32.25;4.63;;;25.70;63.30;;;;;;5038777;28;20557;-62
2022/05/17 12:18:55;;;;;;;24.33;4.68;;;25.80;63.50;;;;;;5035455;28;20508;-63
2022/05/17 12:21:40;;;;;;;24.85;4.10;;;25.90;63.10;;;;;;5035846;28;20061;-63
2022/05/17 12:24:24;;;;;;;31.73;5.90;;;25.90;62.40;;;;;;5037509;28;20033;-64
2022/05/17 12:27:08;;;;;;;30.83;4.63;;;26.00;62.50;;;;;;5027144;28;20082;-64
2022/05/17 12:32:23;;;;;;;27.33;4.22;;;26.20;62.40;;;;;;5023734;28;20134;-62
2022/05/17 12:34:51;;;;;;;32.00;4.75;;;26.20;62.10;;;;;;5038200;28;20461;-64
2022/05/17 12:37:16;;;;;;;31.80;4.95;;;26.30;62.50;;;;;;5021659;28;20068;-63
2022/05/17 12:45:18;;;;;;;29.65;4.63;;;26.60;61.30;;;;;;5019197;28;20165;-62
2022/05/17 12:47:48;;;;;;;25.25;4.32;;;26.70;61.90;;;;;;5040937;28;20057;-62
2022/05/17 12:50:19;;;;;;;28.50;4.20;;;26.80;61.60;;;;;;5043689;28;20468;-63
2022/05/17 12:52:46;;;;;;;21.02;3.90;;;26.90;61.20;;;;;;5038668;28;20025;-63
2022/05/17 12:55:23;;;;;;;26.20;4.43;;;27.00;59.60;;;;;;5026619;28;20037;-62
2022/05/17 12:57:49;;;;;;;25.65;3.72;;;27.10;60.00;;;;;;5004992;28;20036;-63
2022/05/17 13:00:15;;;;;;;26.52;3.40;;;27.20;59.80;;;;;;5036795;28;20032;-63
2022/05/17 13:02:52;;;;;;;15.88;3.25;;;27.20;59.80;;;;;;5039266;28;20075;-63
2022/05/17 13:05:40;;;;;;;23.02;3.55;;;27.30;57.70;;;;;;5035285;28;20053;-63
2022/05/17 13:08:10;;;;;;;29.30;3.72;;;27.30;58.50;;;;;;5038865;28;20349;-63
2022/05/17 13:10:37;;;;;;;31.65;4.57;;;27.50;58.00;;;;;;5039981;28;20028;-64
2022/05/17 13:13:14;;;;;;;24.48;3.60;;;27.50;56.80;;;;;;5041950;28;20112;-63